createdAt,value
2019-04-14T00:00:57.580Z,4.50
2019-04-14T00:03:35.178Z,4.40
2019-04-14T00:06:07.132Z,4.30
2019-04-14T00:08:39.557Z,4.30
2019-04-14T00:11:10.413Z,4.30
2019-04-14T00:13:41.287Z,4.20
2019-04-14T00:16:12.652Z,4.20
2019-04-14T00:18:42.988Z,4.10
2019-04-14T00:21:13.343Z,4.00
2019-04-14T00:23:47.806Z,3.90
2019-04-14T00:26:31.365Z,3.80
2019-04-14T00:29:02.817Z,3.80
2019-04-14T00:31:33.424Z,3.90
2019-04-14T00:34:07.335Z,3.90
2019-04-14T00:36:50.970Z,3.90
2019-04-14T00:39:29.421Z,3.80
2019-04-14T00:42:32.007Z,3.80
2019-04-14T00:45:11.223Z,3.70
2019-04-14T00:47:54.769Z,3.70
2019-04-14T00:50:19.139Z,3.70
2019-04-14T00:52:50.144Z,3.70
2019-04-14T00:55:20.697Z,3.60
2019-04-14T00:57:50.991Z,3.70
2019-04-14T01:00:21.966Z,3.70
2019-04-14T01:02:53.631Z,3.70
2019-04-14T01:05:24.575Z,3.70
2019-04-14T01:07:55.079Z,3.70
2019-04-14T01:10:25.682Z,3.60
2019-04-14T01:12:56.402Z,3.60
2019-04-14T01:15:26.912Z,3.60
2019-04-14T01:17:59.336Z,3.50
2019-04-14T01:20:29.714Z,3.50
2019-04-14T01:23:00.171Z,3.50
2019-04-14T01:25:30.481Z,3.50
2019-04-14T01:28:02.396Z,3.50
2019-04-14T01:30:33.026Z,3.40
2019-04-14T01:33:03.343Z,3.40
2019-04-14T01:35:33.975Z,3.40
2019-04-14T01:38:05.896Z,3.40
2019-04-14T01:40:36.398Z,3.40
2019-04-14T01:43:07.993Z,3.40
2019-04-14T01:45:40.290Z,3.40
2019-04-14T01:48:10.831Z,3.30
2019-04-14T01:50:56.198Z,3.30
2019-04-14T01:53:40.160Z,3.30
2019-04-14T01:56:32.365Z,3.30
2019-04-14T01:59:05.034Z,3.20
2019-04-14T02:01:36.748Z,3.20
2019-04-14T02:04:07.376Z,3.20
2019-04-14T02:06:37.937Z,3.20
2019-04-14T02:09:11.901Z,3.20
2019-04-14T02:11:45.013Z,3.30
2019-04-14T02:14:16.874Z,3.20
2019-04-14T02:16:52.583Z,3.20
2019-04-14T02:19:19.864Z,3.20
2019-04-14T02:21:51.904Z,3.20
2019-04-14T02:24:22.560Z,3.20
2019-04-14T02:26:53.052Z,3.20
2019-04-14T02:29:23.379Z,3.20
2019-04-14T02:32:33.843Z,3.20
2019-04-14T02:34:57.479Z,3.10
2019-04-14T02:40:04.110Z,3.10
2019-04-14T02:42:36.801Z,3.10
2019-04-14T02:44:59.927Z,3.10
2019-04-14T02:50:05.231Z,2.90
2019-04-14T02:52:35.453Z,2.90
2019-04-14T02:55:02.902Z,2.90
2019-04-14T02:57:38.260Z,2.80
2019-04-14T03:00:21.668Z,2.90
2019-04-14T03:03:01.222Z,2.80
2019-04-14T03:07:54.222Z,2.90
2019-04-14T03:13:01.820Z,2.80
2019-04-14T03:15:26.685Z,2.80
2019-04-14T03:27:06.340Z,2.90
2019-04-14T03:29:39.251Z,2.90
2019-04-14T03:37:39.603Z,2.90
2019-04-14T03:39:45.969Z,2.90
2019-04-14T03:42:19.878Z,2.80
2019-04-14T03:44:49.524Z,2.80
2019-04-14T03:47:22.080Z,2.90
2019-04-14T03:49:52.591Z,2.80
2019-04-14T03:52:35.488Z,2.70
2019-04-14T03:54:52.838Z,2.60
2019-04-14T03:57:03.976Z,2.70
2019-04-14T03:59:34.623Z,2.60
2019-04-14T04:02:05.362Z,2.70
2019-04-14T04:04:35.927Z,2.60
2019-04-14T04:07:06.326Z,2.60
2019-04-14T04:09:45.469Z,2.50
2019-04-14T04:12:16.037Z,2.50
2019-04-14T04:14:46.611Z,2.50
2019-04-14T04:17:48.024Z,2.50
2019-04-14T04:20:36.993Z,2.50
2019-04-14T04:23:18.419Z,2.50
2019-04-14T04:25:55.110Z,2.50
2019-04-14T04:28:38.981Z,2.40
2019-04-14T04:31:39.504Z,2.40
2019-04-14T04:34:16.264Z,2.40
2019-04-14T04:36:57.501Z,2.40
2019-04-14T04:39:35.259Z,2.30
2019-04-14T04:42:09.135Z,2.20
2019-04-14T04:44:40.181Z,2.20
2019-04-14T04:47:12.233Z,2.20
2019-04-14T04:49:43.175Z,2.20
2019-04-14T04:52:15.811Z,2.20
2019-04-14T04:54:47.412Z,2.10
2019-04-14T04:57:18.376Z,2.10
2019-04-14T04:59:49.978Z,2.10
2019-04-14T05:02:21.980Z,2.10
2019-04-14T05:04:53.110Z,2.00
2019-04-14T05:07:25.240Z,2.10
2019-04-14T05:10:17.359Z,2.00
2019-04-14T05:13:11.782Z,2.10
2019-04-14T05:15:49.141Z,2.00
2019-04-14T05:18:22.265Z,2.00
2019-04-14T05:20:55.221Z,2.00
2019-04-14T05:23:27.816Z,2.00
2019-04-14T05:26:00.453Z,2.00
2019-04-14T05:28:31.673Z,2.00
2019-04-14T05:31:07.485Z,2.00
2019-04-14T05:33:40.364Z,2.00
2019-04-14T05:36:12.863Z,2.10
2019-04-14T05:38:44.922Z,2.10
2019-04-14T05:41:16.171Z,2.10
2019-04-14T05:43:52.067Z,2.10
2019-04-14T05:46:20.893Z,2.20
2019-04-14T05:48:51.725Z,2.20
2019-04-14T05:51:24.528Z,2.30
2019-04-14T05:53:58.967Z,2.30
2019-04-14T05:56:30.108Z,2.40
2019-04-14T05:59:02.230Z,2.50
2019-04-14T06:01:33.820Z,2.50
2019-04-14T06:04:07.111Z,2.60
2019-04-14T06:06:41.597Z,2.60
2019-04-14T06:09:15.608Z,2.70
2019-04-14T06:11:46.610Z,2.80
2019-04-14T06:14:17.796Z,2.80
2019-04-14T06:16:50.784Z,2.90
2019-04-14T06:19:21.759Z,3.00
2019-04-14T06:21:53.326Z,3.00
2019-04-14T06:24:24.282Z,3.10
2019-04-14T06:26:59.298Z,3.30
2019-04-14T06:29:30.798Z,3.30
2019-04-14T06:32:38.596Z,3.40
2019-04-14T06:35:32.738Z,3.50
2019-04-14T06:38:06.040Z,3.70
2019-04-14T06:40:47.877Z,3.80
2019-04-14T06:43:18.901Z,4.10
2019-04-14T06:45:50.012Z,4.20
2019-04-14T06:48:21.197Z,4.20
2019-04-14T06:50:52.305Z,4.40
2019-04-14T06:53:24.911Z,4.50
2019-04-14T06:55:57.293Z,4.60
2019-04-14T06:58:28.740Z,4.70
2019-04-14T07:00:59.763Z,4.90
2019-04-14T07:03:31.757Z,5.10
2019-04-14T07:06:03.437Z,5.20
2019-04-14T07:08:34.531Z,5.50
2019-04-14T07:11:06.789Z,5.60
2019-04-14T07:13:40.049Z,5.80
2019-04-14T07:16:11.035Z,6.10
2019-04-14T07:18:42.073Z,6.20
2019-04-14T07:21:13.202Z,6.20
2019-04-14T07:23:47.092Z,6.00
2019-04-14T07:26:17.172Z,5.80
2019-04-14T07:28:56.601Z,5.90
2019-04-14T07:31:40.782Z,5.80
2019-04-14T07:34:29.362Z,5.80
2019-04-14T07:37:19.061Z,5.90
2019-04-14T07:40:08.314Z,5.90
2019-04-14T07:42:55.085Z,5.80
2019-04-14T07:45:31.677Z,5.70
2019-04-14T07:48:08.420Z,5.60
2019-04-14T07:51:07.900Z,5.80
2019-04-14T07:53:54.279Z,5.90
2019-04-14T07:56:47.461Z,6.00
2019-04-14T07:59:26.154Z,6.10
2019-04-14T08:02:29.161Z,6.20
2019-04-14T08:05:13.287Z,6.30
2019-04-14T08:07:44.313Z,6.40
2019-04-14T08:10:15.543Z,6.50
2019-04-14T08:12:46.641Z,6.60
2019-04-14T08:15:20.087Z,6.60
2019-04-14T08:17:50.401Z,6.70
2019-04-14T08:20:27.629Z,6.70
2019-04-14T08:22:54.241Z,6.70
2019-04-14T08:25:29.185Z,6.70
2019-04-14T08:28:00.382Z,6.80
2019-04-14T08:30:31.465Z,6.90
2019-04-14T08:33:03.076Z,6.90
2019-04-14T08:35:34.802Z,7.10
2019-04-14T08:38:07.728Z,7.10
2019-04-14T08:40:38.630Z,7.20
2019-04-14T08:43:26.086Z,7.30
2019-04-14T08:46:05.874Z,7.30
2019-04-14T08:48:53.882Z,7.50
2019-04-14T08:51:43.242Z,7.50
2019-04-14T08:54:36.734Z,7.40
2019-04-14T08:57:18.411Z,7.50
2019-04-14T09:00:20.822Z,7.50
2019-04-14T09:03:16.346Z,7.60
2019-04-14T09:06:04.807Z,7.70
2019-04-14T09:08:57.662Z,7.70
2019-04-14T09:11:36.442Z,7.70
2019-04-14T09:14:10.547Z,7.80
2019-04-14T09:16:43.304Z,7.70
2019-04-14T09:19:14.423Z,7.70
2019-04-14T09:21:45.597Z,7.60
2019-04-14T09:24:17.504Z,7.60
2019-04-14T09:26:48.714Z,7.70
2019-04-14T09:29:19.649Z,7.80
2019-04-14T09:31:50.629Z,7.80
2019-04-14T09:34:21.690Z,7.90
2019-04-14T09:36:53.026Z,7.90
2019-04-14T09:39:25.165Z,8.00
2019-04-14T09:41:58.246Z,8.10
2019-04-14T09:44:29.249Z,8.10
2019-04-14T09:47:00.228Z,8.20
2019-04-14T09:49:34.000Z,8.30
2019-04-14T09:52:05.001Z,8.30
2019-04-14T09:54:36.244Z,8.30
2019-04-14T09:57:07.124Z,8.20
2019-04-14T09:59:38.184Z,8.50
2019-04-14T10:02:09.302Z,8.60
2019-04-14T10:04:41.294Z,8.50
2019-04-14T10:07:12.805Z,8.30
2019-04-14T10:09:43.727Z,8.30
2019-04-14T10:12:14.862Z,8.30
2019-04-14T10:14:46.136Z,8.30
2019-04-14T10:17:17.411Z,8.40
2019-04-14T10:19:48.329Z,8.40
2019-04-14T10:22:19.156Z,8.40
2019-04-14T10:24:50.276Z,8.40
2019-04-14T10:27:22.156Z,8.40
2019-04-14T10:29:53.326Z,8.40
2019-04-14T10:32:24.527Z,8.40
2019-04-14T10:34:55.560Z,8.60
2019-04-14T10:37:26.969Z,8.60
2019-04-14T10:39:58.099Z,8.60
2019-04-14T10:42:29.263Z,8.60
2019-04-14T10:45:00.253Z,8.50
2019-04-14T10:47:31.161Z,8.60
2019-04-14T10:50:02.516Z,8.50
2019-04-14T10:52:33.409Z,8.50
2019-04-14T10:55:04.194Z,8.20
2019-04-14T10:57:35.514Z,8.30
2019-04-14T11:00:08.322Z,8.30
2019-04-14T11:02:39.165Z,8.30
2019-04-14T11:05:10.739Z,8.20
2019-04-14T11:07:41.769Z,8.20
2019-04-14T11:10:13.000Z,8.20
2019-04-14T11:12:44.227Z,8.20
2019-04-14T11:15:15.586Z,8.20
2019-04-14T11:17:46.503Z,8.30
2019-04-14T11:20:17.097Z,8.30
2019-04-14T11:22:48.364Z,8.40
2019-04-14T11:25:19.329Z,8.40
2019-04-14T11:27:51.364Z,8.40
2019-04-14T11:30:23.418Z,8.40
2019-04-14T11:33:00.755Z,8.40
2019-04-14T11:35:53.188Z,8.40
2019-04-14T11:38:31.657Z,8.50
2019-04-14T11:41:06.393Z,8.40
2019-04-14T11:43:37.439Z,8.40
2019-04-14T11:46:08.564Z,8.50
2019-04-14T11:48:39.916Z,8.40
2019-04-14T11:51:10.969Z,8.40
2019-04-14T11:53:41.800Z,8.50
2019-04-14T11:56:12.965Z,8.40
2019-04-14T11:58:46.055Z,8.40
2019-04-14T12:01:35.842Z,8.30
2019-04-14T12:04:19.321Z,8.00
2019-04-14T12:06:58.482Z,8.00
2019-04-14T12:09:35.209Z,8.00
2019-04-14T12:12:09.191Z,7.90
2019-04-14T12:14:40.005Z,8.10
2019-04-14T12:17:10.893Z,8.10
2019-04-14T12:19:41.869Z,8.00
2019-04-14T12:22:12.774Z,7.90
2019-04-14T12:24:44.038Z,7.90
2019-04-14T12:27:15.670Z,7.80
2019-04-14T12:29:47.848Z,7.90
2019-04-14T12:32:19.275Z,7.80
2019-04-14T12:34:50.073Z,7.70
2019-04-14T12:37:20.776Z,7.70
2019-04-14T12:39:54.194Z,7.60
2019-04-14T12:42:37.178Z,7.60
2019-04-14T12:45:27.199Z,7.40
2019-04-14T12:48:15.164Z,7.30
2019-04-14T12:50:55.793Z,7.40
2019-04-14T12:53:28.118Z,7.40
2019-04-14T12:55:59.748Z,7.40
2019-04-14T12:59:08.275Z,7.40
2019-04-14T13:01:44.691Z,7.20
2019-04-14T13:04:15.589Z,7.30
2019-04-14T13:06:46.698Z,7.20
2019-04-14T13:09:18.132Z,7.30
2019-04-14T13:11:49.207Z,7.40
2019-04-14T13:14:20.675Z,7.40
2019-04-14T13:16:52.948Z,7.40
2019-04-14T13:19:24.202Z,7.40
2019-04-14T13:21:54.905Z,7.50
2019-04-14T13:24:25.801Z,7.50
2019-04-14T13:26:59.305Z,7.40
2019-04-14T13:29:30.225Z,7.50
2019-04-14T13:32:00.977Z,7.50
2019-04-14T13:34:32.325Z,7.50
2019-04-14T13:37:03.186Z,7.40
2019-04-14T13:39:33.704Z,7.30
2019-04-14T13:42:04.324Z,7.10
2019-04-14T13:44:35.233Z,7.20
2019-04-14T13:47:08.875Z,7.20
2019-04-14T13:49:41.140Z,7.30
2019-04-14T13:52:11.968Z,7.20
2019-04-14T13:54:42.566Z,7.10
2019-04-14T13:57:13.388Z,7.10
2019-04-14T13:59:44.299Z,7.10
2019-04-14T14:02:15.567Z,7.00
2019-04-14T14:04:46.360Z,7.10
2019-04-14T14:07:17.246Z,7.10
2019-04-14T14:09:48.028Z,7.10
2019-04-14T14:12:26.700Z,7.10
2019-04-14T14:15:09.533Z,7.00
2019-04-14T14:17:54.093Z,7.10
2019-04-14T14:20:46.664Z,7.10
2019-04-14T14:23:27.781Z,7.10
2019-04-14T14:26:01.891Z,7.10
2019-04-14T14:28:34.981Z,7.10
2019-04-14T14:31:09.015Z,7.10
2019-04-14T14:33:40.195Z,7.20
2019-04-14T14:36:11.269Z,7.20
2019-04-14T14:38:44.396Z,7.20
2019-04-14T14:41:17.627Z,7.20
2019-04-14T14:43:49.519Z,7.20
2019-04-14T14:46:38.517Z,7.10
2019-04-14T14:49:16.777Z,7.20
2019-04-14T14:51:52.875Z,7.20
2019-04-14T14:54:24.391Z,7.10
2019-04-14T14:56:55.471Z,7.10
2019-04-14T14:59:26.775Z,7.10
2019-04-14T15:01:58.423Z,7.10
2019-04-14T15:04:29.528Z,7.10
2019-04-14T15:07:00.952Z,7.10
2019-04-14T15:09:32.773Z,6.90
2019-04-14T15:12:04.174Z,6.90
2019-04-14T15:14:35.111Z,6.90
2019-04-14T15:17:08.360Z,6.90
2019-04-14T15:19:38.944Z,7.00
2019-04-14T15:22:10.048Z,7.00
2019-04-14T15:24:41.152Z,7.00
2019-04-14T15:27:12.396Z,7.00
2019-04-14T15:29:43.311Z,7.00
2019-04-14T15:32:14.402Z,7.00
2019-04-14T15:34:45.285Z,7.10
2019-04-14T15:37:18.840Z,7.20
2019-04-14T15:39:49.650Z,7.10
2019-04-14T15:42:20.671Z,7.20
2019-04-14T15:44:51.599Z,7.20
2019-04-14T15:47:22.199Z,7.30
2019-04-14T15:49:52.921Z,7.30
2019-04-14T15:52:29.892Z,7.40
2019-04-14T15:55:00.739Z,7.50
2019-04-14T15:57:58.838Z,7.50
2019-04-14T16:00:51.043Z,7.50
2019-04-14T16:03:36.583Z,7.50
2019-04-14T16:06:26.226Z,7.50
2019-04-14T16:09:01.877Z,7.50
2019-04-14T16:11:54.450Z,7.50
2019-04-14T16:14:43.644Z,7.60
2019-04-14T16:17:32.907Z,7.60
2019-04-14T16:20:13.927Z,7.60
2019-04-14T16:22:45.172Z,7.60
2019-04-14T16:25:17.152Z,7.60
2019-04-14T16:27:59.141Z,7.60
2019-04-14T16:31:03.938Z,7.70
2019-04-14T16:33:53.855Z,7.70
2019-04-14T16:36:25.309Z,7.70
2019-04-14T16:38:56.216Z,7.70
2019-04-14T16:41:27.652Z,7.70
2019-04-14T16:43:58.524Z,7.70
2019-04-14T16:46:29.608Z,7.70
2019-04-14T16:49:00.784Z,7.70
2019-04-14T16:51:41.013Z,7.70
2019-04-14T16:54:25.898Z,7.70
2019-04-14T16:57:14.361Z,7.80
2019-04-14T16:59:45.373Z,7.80
2019-04-14T17:02:16.480Z,7.80
2019-04-14T17:04:47.228Z,7.80
2019-04-14T17:07:18.260Z,7.80
2019-04-14T17:09:49.471Z,7.90
2019-04-14T17:12:26.167Z,7.90
2019-04-14T17:15:11.111Z,7.90
2019-04-14T17:17:59.481Z,7.90
2019-04-14T17:21:04.759Z,7.90
2019-04-14T17:23:42.724Z,8.00
2019-04-14T17:26:20.807Z,7.90
2019-04-14T17:28:59.061Z,8.00
2019-04-14T17:31:39.469Z,8.00
2019-04-14T17:34:33.129Z,8.00
2019-04-14T17:37:23.236Z,8.00
2019-04-14T17:40:07.486Z,8.00
2019-04-14T17:42:44.375Z,8.00
2019-04-14T17:45:21.164Z,8.00
2019-04-14T17:48:10.968Z,8.00
2019-04-14T17:50:49.418Z,8.00
2019-04-14T17:53:43.120Z,8.00
2019-04-14T17:56:23.411Z,8.10
2019-04-14T17:59:11.211Z,8.10
2019-04-14T18:02:09.476Z,8.20
2019-04-14T18:04:54.339Z,8.10
2019-04-14T18:07:34.046Z,8.10
2019-04-14T18:10:27.684Z,8.10
2019-04-14T18:13:20.940Z,8.10
2019-04-14T18:16:04.987Z,8.10
2019-04-14T18:19:03.941Z,8.10
2019-04-14T18:21:35.653Z,8.10
2019-04-14T18:24:11.653Z,8.10
2019-04-14T18:26:42.275Z,8.20
2019-04-14T18:29:28.151Z,8.10
2019-04-14T18:32:06.655Z,8.20
2019-04-14T18:34:56.371Z,8.20
2019-04-14T18:37:44.161Z,8.20
2019-04-14T18:40:28.173Z,8.20
2019-04-14T18:43:13.397Z,8.30
2019-04-14T18:45:49.174Z,8.30
2019-04-14T18:48:41.532Z,8.30
2019-04-14T18:51:43.032Z,8.30
2019-04-14T18:54:35.420Z,8.20
2019-04-14T18:57:22.680Z,8.10
2019-04-14T19:00:01.338Z,8.20
2019-04-14T19:02:32.026Z,8.20
2019-04-14T19:05:03.235Z,8.20
2019-04-14T19:07:33.856Z,8.20
2019-04-14T19:10:05.124Z,8.30
2019-04-14T19:12:57.023Z,8.40
2019-04-14T19:15:35.180Z,8.30
2019-04-14T19:18:39.764Z,8.40
2019-04-14T19:21:12.713Z,8.30
2019-04-14T19:23:46.180Z,8.40
2019-04-14T19:26:15.381Z,8.30
2019-04-14T19:28:45.829Z,8.40
2019-04-14T19:31:17.425Z,8.50
2019-04-14T19:33:47.947Z,8.50
2019-04-14T19:36:18.696Z,8.60
2019-04-14T19:38:51.982Z,8.50
2019-04-14T19:41:22.740Z,8.40
2019-04-14T19:43:53.177Z,8.40
2019-04-14T19:46:23.874Z,8.40
2019-04-14T19:48:54.616Z,8.30
2019-04-14T19:51:25.151Z,8.30
2019-04-14T19:53:55.897Z,8.40
2019-04-14T19:56:26.583Z,8.40
2019-04-14T19:58:57.379Z,8.50
2019-04-14T20:01:29.851Z,8.50
2019-04-14T20:04:00.326Z,8.50
2019-04-14T20:06:31.114Z,8.60
2019-04-14T20:09:02.841Z,8.50
2019-04-14T20:11:33.511Z,8.50
2019-04-14T20:14:04.166Z,8.60
2019-04-14T20:16:58.588Z,8.60
2019-04-14T20:19:46.934Z,8.60
2019-04-14T20:22:33.738Z,8.60
2019-04-14T20:25:33.839Z,8.60
2019-04-14T20:28:26.474Z,8.60
2019-04-14T20:31:03.107Z,8.50
2019-04-14T20:33:33.808Z,8.50
2019-04-14T20:36:05.400Z,8.50
2019-04-14T20:38:36.052Z,8.50
2019-04-14T20:41:07.011Z,8.50
2019-04-14T20:43:37.602Z,8.60
2019-04-14T20:46:08.256Z,8.50
2019-04-14T20:48:38.734Z,8.50
2019-04-14T20:51:09.594Z,8.60
2019-04-14T20:53:41.247Z,8.40
2019-04-14T20:56:11.623Z,8.40
2019-04-14T20:58:42.395Z,8.40
2019-04-14T21:01:14.917Z,8.50
2019-04-14T21:04:07.627Z,8.50
2019-04-14T21:06:56.930Z,8.60
2019-04-14T21:09:43.367Z,8.60
2019-04-14T21:12:31.936Z,8.60
2019-04-14T21:15:34.564Z,8.50
2019-04-14T21:18:12.039Z,8.40
2019-04-14T21:20:50.654Z,8.40
2019-04-14T21:23:39.963Z,8.30
2019-04-14T21:26:21.165Z,8.50
2019-04-14T21:29:10.750Z,8.60
2019-04-14T21:31:56.570Z,8.60
2019-04-14T21:34:44.773Z,8.50
2019-04-14T21:37:34.411Z,8.50
2019-04-14T21:40:30.408Z,8.50
2019-04-14T21:43:01.230Z,8.40
2019-04-14T21:45:32.661Z,8.40
2019-04-14T21:48:03.078Z,8.30
2019-04-14T21:50:33.585Z,8.20
2019-04-14T21:53:04.754Z,8.20
2019-04-14T21:55:35.682Z,8.20
2019-04-14T21:58:39.995Z,8.10
2019-04-14T22:01:51.406Z,8.00
2019-04-14T22:04:47.037Z,8.00
2019-04-14T22:07:43.693Z,8.00
2019-04-14T22:10:22.929Z,8.00
2019-04-14T22:12:53.385Z,8.00
2019-04-14T22:15:23.831Z,8.00
2019-04-14T22:17:54.454Z,8.00
2019-04-14T22:20:24.895Z,8.00
2019-04-14T22:22:55.363Z,8.00
2019-04-14T22:25:27.619Z,8.00
2019-04-14T22:27:58.118Z,8.00
2019-04-14T22:30:29.713Z,8.10
2019-04-14T22:33:00.564Z,8.00
2019-04-14T22:35:31.319Z,8.10
2019-04-14T22:38:03.027Z,8.10
2019-04-14T22:40:33.451Z,8.10
2019-04-14T22:43:04.026Z,8.10
2019-04-14T22:45:34.895Z,8.00
2019-04-14T22:48:06.613Z,8.10
2019-04-14T22:50:37.285Z,8.10
2019-04-14T22:53:08.034Z,8.10
2019-04-14T22:55:38.526Z,8.00
2019-04-14T22:58:08.983Z,8.10
2019-04-14T23:00:58.687Z,8.20
2019-04-14T23:04:06.258Z,8.20
2019-04-14T23:06:58.210Z,8.20
2019-04-14T23:09:51.840Z,8.10
2019-04-14T23:12:59.111Z,8.10
2019-04-14T23:15:50.489Z,8.00
2019-04-14T23:18:40.463Z,8.00
2019-04-14T23:21:16.638Z,8.00
2019-04-14T23:24:09.290Z,7.90
2019-04-14T23:26:51.723Z,7.90
2019-04-14T23:29:13.369Z,7.90
2019-04-14T23:31:44.009Z,7.80
2019-04-14T23:34:14.535Z,7.60
2019-04-14T23:36:46.157Z,7.80
2019-04-14T23:39:17.009Z,7.90
2019-04-14T23:41:47.986Z,7.90
2019-04-14T23:44:19.421Z,7.80
2019-04-14T23:46:50.161Z,7.80
2019-04-14T23:49:22.425Z,7.90
2019-04-14T23:51:53.503Z,7.80
2019-04-14T23:54:24.257Z,7.80
2019-04-14T23:57:04.667Z,7.80
2019-04-14T23:59:27.338Z,7.80
